Time;durP1;ratioP1;P1;durP2;ratioP2;P2;SDS_P1;SDS_P2;PMS_P1;PMS_P2;Temp;Humidity;BMP_temperature;BMP_pressure;BME280_temperature;BME280_humidity;BME280_pressure;Samples;Min_cycle;Max_cycle;Signal;HPM_P1;HPM_P2
2022/11/21 00:00:23;;;;;;;38.63;5.95;;;;;;;20.31;100.00;101349.56;2094169;28;20041;-72
2022/11/21 00:01:45;;;;;;;36.38;5.90;;;;;;;20.30;100.00;101339.75;2100196;28;20052;-72
2022/11/21 00:03:08;;;;;;;41.78;6.50;;;;;;;20.28;100.00;101338.91;2102925;28;20040;-72
2022/11/21 00:04:31;;;;;;;48.53;6.22;;;;;;;20.28;100.00;101336.22;2094620;28;20059;-72
2022/11/21 00:05:52;;;;;;;34.50;6.97;;;;;;;20.26;100.00;101344.28;2102737;28;20092;-72
2022/11/21 00:07:15;;;;;;;35.35;4.97;;;;;;;20.26;100.00;101338.91;2102558;28;20079;-73
2022/11/21 00:08:37;;;;;;;32.97;6.63;;;;;;;20.25;100.00;101341.59;2105261;28;20051;-72
2022/11/21 00:09:59;;;;;;;30.48;4.88;;;;;;;20.23;100.00;101340.72;2097298;28;20071;-72
2022/11/21 00:11:21;;;;;;;44.60;6.30;;;;;;;20.23;100.00;101336.25;2108441;28;20567;-71
2022/11/21 00:12:44;;;;;;;42.22;6.50;;;;;;;20.22;100.00;101334.47;2085906;28;20064;-72
2022/11/21 00:14:06;;;;;;;33.72;5.85;;;;;;;20.21;100.00;101330.06;2091246;28;20040;-72
2022/11/21 00:15:28;;;;;;;43.10;6.35;;;;;;;20.20;100.00;101322.91;2094522;28;20500;-72
2022/11/21 00:16:50;;;;;;;22.52;5.30;;;;;;;20.19;100.00;101322.94;2099051;28;20043;-73
2022/11/21 00:18:12;;;;;;;41.38;6.38;;;;;;;20.18;100.00;101315.78;2093833;28;20615;-73
2022/11/21 00:19:34;;;;;;;40.78;4.88;;;;;;;20.17;100.00;101322.94;2091542;28;20423;-73
2022/11/21 00:20:55;;;;;;;34.55;5.15;;;;;;;20.17;100.00;101316.69;2099854;28;20104;-72
2022/11/21 00:22:18;;;;;;;30.15;5.38;;;;;;;20.15;100.00;101311.34;2102634;28;20048;-72
2022/11/21 00:23:41;;;;;;;39.35;5.85;;;;;;;20.15;100.00;101313.19;2102809;28;20113;-72
2022/11/21 00:25:02;;;;;;;38.20;6.80;;;;;;;20.16;100.00;101320.28;2104169;28;20093;-72
2022/11/21 00:26:25;;;;;;;35.63;7.43;;;;;;;20.14;100.00;101320.34;2110770;28;20073;-72
2022/11/21 00:27:49;;;;;;;29.60;5.57;;;;;;;20.15;100.00;101315.84;2111011;28;20465;-72
2022/11/21 00:29:11;;;;;;;37.25;5.03;;;;;;;20.14;100.00;101316.75;2111076;28;20052;-72
2022/11/21 00:30:32;;;;;;;40.80;4.97;;;;;;;20.14;100.00;101322.13;2110906;28;20048;-72
2022/11/21 00:31:55;;;;;;;38.85;7.00;;;;;;;20.14;100.00;101317.66;2111169;28;20059;-72
2022/11/21 00:33:16;;;;;;;48.05;6.70;;;;;;;20.13;100.00;101321.22;2110909;28;20532;-73
2022/11/21 00:34:39;;;;;;;32.75;4.78;;;;;;;20.13;100.00;101313.19;2105309;28;20662;-72
2022/11/21 00:36:07;;;;;;;40.67;5.53;;;;;;;20.14;100.00;101323.00;2108439;28;20051;-72
2022/11/21 00:37:28;;;;;;;31.58;5.25;;;;;;;20.14;100.00;101319.44;2103171;28;20650;-73
2022/11/21 00:38:52;;;;;;;37.70;5.13;;;;;;;20.13;100.00;101309.63;2107833;28;20053;-73
2022/11/21 00:40:13;;;;;;;34.40;5.22;;;;;;;20.14;100.00;101314.06;2113601;28;20040;-72
2022/11/21 00:41:36;;;;;;;41.35;5.93;;;;;;;20.14;100.00;101306.94;2102458;28;20511;-72
2022/11/21 00:43:00;;;;;;;27.08;5.80;;;;;;;20.15;100.00;101303.31;2108468;28;20058;-72
2022/11/21 00:44:22;;;;;;;29.67;6.00;;;;;;;20.15;100.00;101297.94;2111216;28;20446;-73
2022/11/21 00:45:44;;;;;;;35.55;5.63;;;;;;;20.14;100.00;101296.19;2110800;28;20592;-72
2022/11/21 00:47:06;;;;;;;44.92;6.32;;;;;;;20.15;100.00;101307.81;2099199;28;20097;-72
2022/11/21 00:48:28;;;;;;;36.50;5.55;;;;;;;20.13;100.00;101306.94;2091540;28;20634;-72
2022/11/21 00:49:50;;;;;;;;;;;;;;;20.07;100.00;101305.25;2094278;28;20091;-72
2022/11/21 00:51:13;;;;;;;32.55;5.47;;;;;;;20.08;100.00;101308.81;2094224;28;20447;-72
2022/11/21 00:52:34;;;;;;;33.90;6.30;;;;;;;20.09;100.00;101310.56;2102458;28;20039;-73
2022/11/21 00:53:57;;;;;;;31.13;5.70;;;;;;;20.10;100.00;101315.00;2096476;28;20048;-72
2022/11/21 00:55:18;;;;;;;38.20;6.85;;;;;;;20.10;100.00;101312.34;2102602;28;20097;-73
2022/11/21 00:56:41;;;;;;;30.02;5.03;;;;;;;20.12;100.00;101315.88;2088085;28;20053;-72
2022/11/21 00:58:04;;;;;;;30.33;6.63;;;;;;;20.13;100.00;101314.97;2099695;28;20048;-73
2022/11/21 00:59:27;;;;;;;35.17;5.15;;;;;;;20.12;100.00;101314.09;2088637;28;20049;-72
2022/11/21 01:00:48;;;;;;;27.88;4.85;;;;;;;20.12;100.00;101314.09;2104555;28;20046;-73
2022/11/21 01:02:12;;;;;;;29.67;5.07;;;;;;;20.11;100.00;101309.63;2103310;28;20403;-72
2022/11/21 01:03:35;;;;;;;35.75;5.47;;;;;;;20.12;100.00;101306.06;2103570;28;20131;-72
2022/11/21 01:04:57;;;;;;;39.15;5.97;;;;;;;20.13;100.00;101304.25;2096382;28;20155;-72
2022/11/21 01:06:19;;;;;;;35.70;6.57;;;;;;;20.12;100.00;101300.69;2093721;28;20044;-72
2022/11/21 01:07:41;;;;;;;39.50;5.22;;;;;;;20.12;100.00;101292.66;2099128;28;20054;-72
2022/11/21 01:09:03;;;;;;;28.10;5.93;;;;;;;20.14;100.00;101293.53;2100422;28;20040;-72
2022/11/21 01:10:25;;;;;;;;;;;;;;;20.11;100.00;101288.19;2094131;28;20037;-72
2022/11/21 01:11:47;;;;;;;25.95;4.78;;;;;;;20.13;100.00;101281.00;2099339;28;20007;-72
2022/11/21 01:13:11;;;;;;;36.25;5.65;;;;;;;20.14;100.00;101281.91;2101130;28;20056;-72
2022/11/21 01:14:33;;;;;;;36.85;5.43;;;;;;;20.15;100.00;101289.03;2102112;28;20101;-72
2022/11/21 01:15:55;;;;;;;31.67;5.60;;;;;;;20.16;100.00;101296.16;2110734;28;20705;-72
2022/11/21 01:17:17;;;;;;;43.55;5.13;;;;;;;20.15;100.00;101299.78;2087865;28;20045;-72
2022/11/21 01:18:39;;;;;;;31.38;6.28;;;;;;;20.16;100.00;101297.03;2099541;28;20068;-72
2022/11/21 01:20:01;;;;;;;35.45;6.22;;;;;;;20.17;100.00;101288.09;2107334;28;20075;-73
2022/11/21 01:21:25;;;;;;;28.08;5.35;;;;;;;20.18;100.00;101294.34;2110573;28;20044;-72
2022/11/21 01:22:47;;;;;;;37.60;5.25;;;;;;;20.17;100.00;101290.78;2102434;28;20377;-72
2022/11/21 01:24:11;;;;;;;39.05;5.75;;;;;;;20.19;100.00;101293.44;2099310;28;20114;-72
2022/11/21 01:25:34;;;;;;;38.10;5.70;;;;;;;20.17;100.00;101276.47;2108466;28;20040;-72
2022/11/21 01:26:55;;;;;;;36.65;5.15;;;;;;;20.14;100.00;101277.44;2110601;28;20056;-72
2022/11/21 01:28:20;;;;;;;35.10;5.10;;;;;;;20.15;100.00;101271.13;2102267;28;20047;-73
2022/11/21 01:29:42;;;;;;;29.42;4.82;;;;;;;20.15;100.00;101272.97;2099994;28;20628;-72
2022/11/21 01:31:05;;;;;;;28.73;5.47;;;;;;;20.15;100.00;101267.59;2091165;28;20044;-72
2022/11/21 01:32:27;;;;;;;31.77;6.35;;;;;;;20.13;100.00;101270.28;2093195;28;20048;-72
2022/11/21 01:33:50;;;;;;;33.08;4.68;;;;;;;20.12;100.00;101262.25;2084756;28;20583;-72
2022/11/21 01:35:12;;;;;;;28.13;5.70;;;;;;;20.11;100.00;101264.06;2090905;28;20058;-72
2022/11/21 01:36:34;;;;;;;28.90;5.50;;;;;;;20.12;100.00;101262.25;2093930;28;20504;-72
2022/11/21 01:37:57;;;;;;;28.67;4.82;;;;;;;20.12;100.00;101262.25;2093805;28;20140;-73
2022/11/21 01:39:18;;;;;;;27.88;5.32;;;;;;;20.13;100.00;101261.38;2093932;28;20048;-72
2022/11/21 01:40:41;;;;;;;31.35;5.82;;;;;;;20.11;100.00;101261.38;2101891;28;20052;-72
2022/11/21 01:42:03;;;;;;;39.88;6.55;;;;;;;20.09;100.00;101255.16;2093152;28;20899;-72
2022/11/21 01:43:26;;;;;;;27.42;5.40;;;;;;;20.11;100.00;101253.34;2083014;28;20044;-72
2022/11/21 01:44:52;;;;;;;26.80;5.57;;;;;;;20.12;100.00;101246.19;2083085;28;20096;-72
2022/11/21 01:46:15;;;;;;;37.38;5.10;;;;;;;20.13;100.00;101253.31;2083952;28;20148;-72
2022/11/21 01:47:36;;;;;;;42.88;7.05;;;;;;;20.13;100.00;101246.16;2091628;28;20093;-72
2022/11/21 01:49:03;;;;;;;31.25;5.05;;;;;;;20.15;100.00;101267.59;2093709;28;20148;-72
2022/11/21 01:50:24;;;;;;;33.97;5.57;;;;;;;20.15;100.00;101264.91;2086096;28;20049;-72
2022/11/21 01:51:51;;;;;;;28.83;4.50;;;;;;;20.16;100.00;101266.66;2082972;28;20144;-72
2022/11/21 01:53:13;;;;;;;27.63;5.15;;;;;;;20.16;100.00;101263.97;2086234;28;20041;-72
2022/11/21 01:54:40;;;;;;;23.52;5.22;;;;;;;20.18;100.00;101260.38;2091033;28;20597;-72
2022/11/21 01:56:02;;;;;;;27.98;5.63;;;;;;;20.18;100.00;101257.69;2096600;28;20580;-72
2022/11/21 01:57:28;;;;;;;30.63;5.78;;;;;;;20.20;100.00;101245.16;2107930;28;20048;-73
2022/11/21 01:58:55;;;;;;;27.48;5.25;;;;;;;20.20;100.00;101255.88;2102359;28;20040;-72
2022/11/21 02:00:20;;;;;;;25.75;5.68;;;;;;;20.22;100.00;101261.19;2104387;28;20048;-72
2022/11/21 02:01:43;;;;;;;38.50;7.13;;;;;;;20.23;100.00;101249.56;2108893;28;20103;-72
2022/11/21 02:03:11;;;;;;;25.00;4.50;;;;;;;20.25;100.00;101254.00;2104673;28;20416;-72
2022/11/21 02:04:35;;;;;;;23.88;6.38;;;;;;;20.25;100.00;101263.84;2102806;28;20073;-72
2022/11/21 02:05:57;;;;;;;25.88;5.40;;;;;;;20.25;100.00;101261.16;2103243;28;20063;-72
2022/11/21 02:07:22;;;;;;;35.15;5.82;;;;;;;20.25;100.00;101266.53;2096714;28;20074;-73
2022/11/21 02:08:44;;;;;;;22.67;6.72;;;;;;;20.23;100.00;101263.88;2096406;28;20147;-72
2022/11/21 02:10:09;;;;;;;28.05;8.20;;;;;;;20.22;100.00;101264.75;2093891;28;20135;-72
2022/11/21 02:11:36;;;;;;;34.47;6.28;;;;;;;20.24;100.00;101262.06;2088017;28;20049;-72
2022/11/21 02:13:01;;;;;;;32.67;6.10;;;;;;;20.24;100.00;101264.75;2094606;28;20131;-72
2022/11/21 02:14:26;;;;;;;27.10;5.20;;;;;;;20.23;100.00;101266.53;2102377;28;20134;-72
2022/11/21 02:15:47;;;;;;;25.50;5.47;;;;;;;20.24;100.00;101270.13;2091379;28;20071;-73
2022/11/21 02:17:10;;;;;;;31.95;6.72;;;;;;;20.21;100.00;101278.22;2091288;28;20076;-72
2022/11/21 02:18:32;;;;;;;23.58;6.13;;;;;;;20.19;100.00;101280.91;2087922;28;20041;-72
2022/11/21 02:19:56;;;;;;;28.45;6.40;;;;;;;20.17;100.00;101277.38;2090732;28;20049;-72
2022/11/21 02:21:26;;;;;;;24.55;7.28;;;;;;;20.16;100.00;101277.38;2102463;28;20040;-72
2022/11/21 02:22:57;;;;;;;19.80;6.05;;;;;;;20.14;100.00;101279.22;2102012;28;20055;-72
2022/11/21 02:24:29;;;;;;;26.52;6.50;;;;;;;20.12;100.00;101281.91;2102839;28;20066;-72
2022/11/21 02:25:53;;;;;;;27.42;6.65;;;;;;;20.11;100.00;101277.47;2101093;28;20044;-72
2022/11/21 02:27:16;;;;;;;23.98;7.75;;;;;;;20.12;100.00;101281.03;2093558;28;20044;-71
2022/11/21 02:28:38;;;;;;;19.88;6.18;;;;;;;20.13;100.00;101274.78;2099021;28;20461;-71
2022/11/21 02:30:02;;;;;;;25.95;6.63;;;;;;;20.16;100.00;101278.28;2107466;28;20048;-72
2022/11/21 02:31:23;;;;;;;27.40;7.65;;;;;;;20.17;100.00;101272.00;2104574;28;20051;-73
2022/11/21 02:32:46;;;;;;;33.60;7.32;;;;;;;20.19;100.00;101262.16;2109814;28;20138;-73
2022/11/21 02:34:09;;;;;;;20.08;6.72;;;;;;;20.21;100.00;101264.81;2104033;28;20068;-72
2022/11/21 02:35:30;;;;;;;30.85;6.78;;;;;;;20.22;100.00;101263.88;2095262;28;20052;-72
2022/11/21 02:36:53;;;;;;;29.40;6.65;;;;;;;20.22;100.00;101264.75;2093527;28;20056;-72
2022/11/21 02:38:20;;;;;;;24.48;6.60;;;;;;;20.21;100.00;101256.78;2096175;28;20072;-72
2022/11/21 02:39:43;;;;;;;34.42;8.50;;;;;;;20.20;100.00;101255.88;2104208;28;20090;-72
2022/11/21 02:41:14;;;;;;;23.65;6.07;;;;;;;20.19;100.00;101239.81;2089536;28;20049;-72
2022/11/21 02:42:40;;;;;;;20.30;6.68;;;;;;;20.20;100.00;101241.59;2087789;28;20175;-72
2022/11/21 02:44:08;;;;;;;24.30;6.72;;;;;;;20.21;100.00;101243.38;2102129;28;20047;-72
2022/11/21 02:45:33;;;;;;;25.60;7.47;;;;;;;20.22;100.00;101242.44;2089595;28;20063;-72
2022/11/21 02:46:56;;;;;;;20.65;6.10;;;;;;;20.21;100.00;101244.25;2085155;28;20465;-72
2022/11/21 02:48:18;;;;;;;32.00;7.00;;;;;;;20.21;100.00;101241.56;2092256;28;20049;-72
2022/11/21 02:49:48;;;;;;;20.65;6.75;;;;;;;20.23;100.00;101242.41;2086923;28;20056;-72
2022/11/21 02:51:09;;;;;;;21.20;6.35;;;;;;;20.24;100.00;101243.28;2099323;28;20062;-72
2022/11/21 02:52:32;;;;;;;17.83;6.65;;;;;;;20.25;100.00;101237.03;2111881;28;20067;-71
2022/11/21 02:53:53;;;;;;;20.52;6.53;;;;;;;20.26;100.00;101238.81;2114470;28;20063;-72
2022/11/21 02:55:15;;;;;;;15.45;6.07;;;;;;;20.25;100.00;101234.34;2103112;28;20438;-72
2022/11/21 02:56:38;;;;;;;19.20;6.85;;;;;;;20.26;100.00;101238.81;2108778;28;20047;-72
2022/11/21 02:58:01;;;;;;;17.90;6.13;;;;;;;20.27;100.00;101235.22;2111016;28;20116;-71
2022/11/21 02:59:22;;;;;;;23.98;6.63;;;;;;;20.27;100.00;101235.22;2113500;28;20354;-71
2022/11/21 03:00:45;;;;;;;18.17;7.00;;;;;;;20.27;100.00;101238.78;2098420;28;20072;-71
2022/11/21 03:02:07;;;;;;;23.58;7.40;;;;;;;20.27;100.00;101241.47;2108436;28;20068;-71
2022/11/21 03:03:29;;;;;;;23.08;7.25;;;;;;;20.27;100.00;101233.44;2103166;28;20154;-70
2022/11/21 03:04:52;;;;;;;21.70;7.85;;;;;;;20.27;100.00;101240.59;2109226;28;20115;-71
2022/11/21 03:06:13;;;;;;;16.77;7.43;;;;;;;20.27;100.00;101240.59;2103299;28;20157;-71
2022/11/21 03:07:35;;;;;;;21.67;6.93;;;;;;;20.29;100.00;101241.41;2111723;28;20050;-71
2022/11/21 03:08:58;;;;;;;22.92;6.72;;;;;;;20.29;100.00;101236.06;2105924;28;20124;-71
2022/11/21 03:10:19;;;;;;;17.45;6.55;;;;;;;20.29;100.00;101238.72;2100544;28;20047;-71
2022/11/21 03:11:43;;;;;;;23.88;7.03;;;;;;;20.30;100.00;101235.16;2100250;28;20089;-71
2022/11/21 03:13:06;;;;;;;23.60;6.88;;;;;;;20.29;100.00;101231.56;2109257;28;20538;-71
2022/11/21 03:14:28;;;;;;;17.98;8.00;;;;;;;20.29;100.00;101238.72;2114091;28;20065;-71
2022/11/21 03:15:50;;;;;;;20.25;6.82;;;;;;;20.29;100.00;101230.69;2111507;28;20458;-72
2022/11/21 03:17:12;;;;;;;19.17;7.45;;;;;;;20.28;100.00;101228.94;2103227;28;20044;-72
2022/11/21 03:18:34;;;;;;;28.55;9.80;;;;;;;20.26;100.00;101223.59;2102960;28;20093;-71
2022/11/21 03:19:55;;;;;;;16.25;6.78;;;;;;;20.25;100.00;101219.16;2106014;28;20040;-71
2022/11/21 03:21:18;;;;;;;18.75;7.38;;;;;;;20.26;100.00;101212.00;2097569;28;20048;-71
2022/11/21 03:22:41;;;;;;;16.95;7.32;;;;;;;20.25;100.00;101205.75;2102802;28;20500;-72
2022/11/21 03:24:02;;;;;;;20.48;7.38;;;;;;;20.26;100.00;101215.56;2098033;28;20049;-73
2022/11/21 03:25:25;;;;;;;17.10;7.15;;;;;;;20.27;100.00;101213.78;2094952;28;20044;-72
2022/11/21 03:26:49;;;;;;;18.17;7.40;;;;;;;20.28;100.00;101204.81;2094749;28;20052;-72
2022/11/21 03:28:10;;;;;;;21.08;8.07;;;;;;;20.28;100.00;101202.13;2103326;28;20048;-72
2022/11/21 03:29:33;;;;;;;15.75;7.07;;;;;;;20.28;100.00;101202.13;2107070;28;20059;-72
2022/11/21 03:30:55;;;;;;;18.60;7.18;;;;;;;20.25;100.00;101194.13;2097059;28;20090;-72
2022/11/21 03:32:17;;;;;;;20.27;7.82;;;;;;;20.24;100.00;101195.03;2103655;28;20040;-71
2022/11/21 03:33:39;;;;;;;16.60;8.20;;;;;;;20.22;100.00;101194.16;2105555;28;20052;-71
2022/11/21 03:35:02;;;;;;;20.67;8.25;;;;;;;20.22;100.00;101196.84;2101314;28;20051;-72
2022/11/21 03:36:24;;;;;;;21.77;7.80;;;;;;;20.23;100.00;101180.75;2097460;28;20105;-71
2022/11/21 03:37:49;;;;;;;17.90;7.57;;;;;;;20.24;100.00;101178.94;2102790;28;20063;-71
2022/11/21 03:39:10;;;;;;;18.65;7.15;;;;;;;20.21;100.00;101174.53;2096915;28;20044;-72
2022/11/21 03:40:32;;;;;;;16.65;7.93;;;;;;;20.20;100.00;101177.25;2103093;28;20081;-71
2022/11/21 03:41:55;;;;;;;18.20;7.35;;;;;;;20.16;100.00;101183.53;2102899;28;20048;-71
2022/11/21 03:43:17;;;;;;;25.55;9.07;;;;;;;20.12;100.00;101172.00;2086175;28;20079;-71
2022/11/21 03:44:39;;;;;;;16.05;7.60;;;;;;;20.09;100.00;101181.88;2100181;28;20044;-71
2022/11/21 03:46:01;;;;;;;19.58;7.78;;;;;;;20.06;100.00;101184.63;2097377;28;20534;-71
2022/11/21 03:47:26;;;;;;;17.73;7.95;;;;;;;20.03;100.00;101181.97;2094651;28;20045;-71
2022/11/21 03:48:48;;;;;;;20.20;8.43;;;;;;;19.99;100.00;101186.53;2112324;28;20538;-71
2022/11/21 03:50:13;;;;;;;20.25;7.53;;;;;;;19.98;100.00;101197.25;2102985;28;20032;-71
2022/11/21 03:51:35;;;;;;;19.85;8.48;;;;;;;19.96;100.00;101199.06;2109299;28;20047;-71
2022/11/21 03:52:58;;;;;;;20.55;7.47;;;;;;;19.93;100.00;101205.38;2109932;28;20099;-71
2022/11/21 03:54:20;;;;;;;19.15;8.05;;;;;;;19.94;100.00;101195.56;2111048;28;20051;-71
2022/11/21 03:55:42;;;;;;;16.50;7.55;;;;;;;19.92;100.00;101190.22;2105584;28;20048;-71
2022/11/21 03:57:06;;;;;;;18.02;7.65;;;;;;;19.92;100.00;101195.56;2094664;28;20055;-71
2022/11/21 03:58:27;;;;;;;16.83;7.43;;;;;;;19.95;100.00;101195.53;2100108;28;20064;-71
2022/11/21 03:59:49;;;;;;;17.48;7.85;;;;;;;19.96;100.00;101191.91;2102711;28;20626;-71
2022/11/21 04:01:12;;;;;;;16.08;7.68;;;;;;;19.96;100.00;101191.91;2086828;28;20049;-71
2022/11/21 04:02:34;;;;;;;20.92;7.10;;;;;;;19.98;100.00;101189.22;2092055;28;20048;-71
2022/11/21 04:03:56;;;;;;;23.08;8.73;;;;;;;19.98;100.00;101197.25;2094418;28;20575;-71
2022/11/21 04:05:18;;;;;;;19.52;7.78;;;;;;;19.97;100.00;101203.53;2086191;28;20049;-72
2022/11/21 04:06:39;;;;;;;15.68;7.28;;;;;;;19.98;100.00;101206.19;2099971;28;20553;-71
2022/11/21 04:08:02;;;;;;;21.05;7.78;;;;;;;19.99;100.00;101204.41;2097242;28;20139;-72
2022/11/21 04:09:23;;;;;;;19.10;7.50;;;;;;;19.99;100.00;101202.59;2088907;28;20398;-71
2022/11/21 04:10:47;;;;;;;22.73;8.32;;;;;;;20.01;100.00;101211.50;2099218;28;20051;-72
2022/11/21 04:12:11;;;;;;;21.25;7.20;;;;;;;20.03;100.00;101203.44;2097273;28;20045;-71
2022/11/21 04:13:33;;;;;;;19.98;7.57;;;;;;;20.06;100.00;101211.44;2094610;28;20654;-71
2022/11/21 04:14:56;;;;;;;21.52;7.70;;;;;;;20.07;100.00;101207.84;2096963;28;20052;-72
2022/11/21 04:16:17;;;;;;;17.20;7.68;;;;;;;20.09;100.00;101206.00;2097423;28;20433;-72
2022/11/21 04:17:39;;;;;;;19.05;7.97;;;;;;;20.10;100.00;101205.09;2094535;28;20044;-72
2022/11/21 04:19:02;;;;;;;18.98;6.90;;;;;;;20.11;100.00;101201.50;2099941;28;20079;-71
2022/11/21 04:20:23;;;;;;;18.48;7.50;;;;;;;20.12;100.00;101208.66;2102535;28;20043;-72
2022/11/21 04:21:46;;;;;;;16.10;7.65;;;;;;;20.14;100.00;101212.19;2108996;28;20097;-72
2022/11/21 04:23:07;;;;;;;20.30;7.85;;;;;;;20.16;100.00;101208.56;2111028;28;20392;-71
2022/11/21 04:24:29;;;;;;;18.63;8.05;;;;;;;20.18;100.00;101211.22;2102452;28;20070;-71
2022/11/21 04:25:51;;;;;;;24.80;8.20;;;;;;;20.16;100.00;101216.59;2104208;28;20043;-71
2022/11/21 04:27:15;;;;;;;18.80;6.60;;;;;;;20.15;100.00;101209.47;2093887;28;20419;-71
2022/11/21 04:28:37;;;;;;;15.38;7.03;;;;;;;20.14;100.00;101212.19;2091872;28;20052;-71
2022/11/21 04:29:59;;;;;;;23.23;7.57;;;;;;;20.10;100.00;101214.03;2091529;28;20680;-71
2022/11/21 04:31:22;;;;;;;17.45;8.05;;;;;;;20.06;100.00;101204.28;2099127;28;20076;-71
2022/11/21 04:32:46;;;;;;;15.95;7.05;;;;;;;20.04;100.00;101205.19;2111064;28;20156;-72
2022/11/21 04:34:08;;;;;;;19.02;7.43;;;;;;;20.00;100.00;101204.38;2104909;28;20134;-72
2022/11/21 04:35:30;;;;;;;22.25;7.63;;;;;;;19.99;100.00;101196.34;2099916;28;20075;-72
2022/11/21 04:36:52;;;;;;;16.52;6.82;;;;;;;19.98;100.00;101197.25;2108200;28;20067;-71
2022/11/21 04:38:13;;;;;;;25.65;8.73;;;;;;;19.98;100.00;101206.19;2110852;28;20466;-72
2022/11/21 04:39:36;;;;;;;17.45;7.25;;;;;;;19.97;100.00;101207.09;2102382;28;20067;-72
2022/11/21 04:40:57;;;;;;;21.13;8.05;;;;;;;19.96;100.00;101205.31;2110877;28;20056;-72
2022/11/21 04:42:21;;;;;;;16.08;7.47;;;;;;;19.95;100.00;101203.56;2094499;28;20110;-73
2022/11/21 04:43:42;;;;;;;18.30;7.57;;;;;;;19.94;100.00;101209.84;2093927;28;20106;-71
2022/11/21 04:45:06;;;;;;;21.30;8.20;;;;;;;19.96;100.00;101205.31;2085927;28;20045;-72
2022/11/21 04:46:29;;;;;;;17.50;7.72;;;;;;;19.99;100.00;101201.72;2091992;28;20070;-72
2022/11/21 04:47:50;;;;;;;20.25;7.65;;;;;;;20.02;100.00;101202.53;2085718;28;20041;-72
2022/11/21 04:49:12;;;;;;;16.83;7.40;;;;;;;20.04;100.00;101198.03;2094047;28;20547;-72
2022/11/21 04:50:35;;;;;;;15.75;7.05;;;;;;;20.06;100.00;101198.03;2088194;28;20037;-72
2022/11/21 04:51:57;;;;;;;17.25;7.30;;;;;;;20.09;100.00;101200.63;2091607;28;20040;-72
2022/11/21 04:53:20;;;;;;;16.67;7.20;;;;;;;20.12;100.00;101195.25;2094253;28;20044;-71
2022/11/21 04:54:42;;;;;;;17.23;7.15;;;;;;;20.17;100.00;101190.69;2088074;28;20053;-71
2022/11/21 04:56:04;;;;;;;16.48;8.52;;;;;;;20.18;100.00;101192.47;2094403;28;20083;-72
2022/11/21 04:57:29;;;;;;;;;;;;;;;20.16;100.00;101195.16;2086126;28;20061;-72
2022/11/21 04:58:52;;;;;;;19.75;7.40;;;;;;;20.19;100.00;101197.81;2098436;28;20361;-72
2022/11/21 05:00:16;;;;;;;16.88;8.00;;;;;;;20.22;100.00;101202.22;2100785;28;20044;-72
2022/11/21 05:01:38;;;;;;;21.23;7.88;;;;;;;20.24;100.00;101197.72;2100977;28;20040;-72
2022/11/21 05:03:03;;;;;;;17.05;7.65;;;;;;;20.26;100.00;101201.25;2093928;28;20040;-72
2022/11/21 05:04:25;;;;;;;20.95;8.93;;;;;;;20.26;100.00;101199.47;2100584;28;20039;-72
2022/11/21 05:05:49;;;;;;;19.58;8.80;;;;;;;20.28;100.00;101203.00;2094215;28;20048;-72
2022/11/21 05:07:10;;;;;;;23.73;8.90;;;;;;;20.28;100.00;101203.00;2091014;28;20048;-72
2022/11/21 05:08:32;;;;;;;16.45;7.45;;;;;;;20.28;100.00;101210.19;2102038;28;20070;-72
2022/11/21 05:09:53;;;;;;;16.23;7.35;;;;;;;20.28;100.00;101196.78;2094243;28;20153;-72
2022/11/21 05:14:40;;;;;;;16.33;7.40;;;;;;;20.31;100.00;101196.69;2104920;28;20139;-73
2022/11/21 05:16:01;;;;;;;28.38;7.15;;;;;;;20.32;100.00;101190.44;2101753;28;20048;-73
2022/11/21 05:17:24;;;;;;;15.02;6.60;;;;;;;20.34;100.00;101188.66;2096533;28;20041;-72
2022/11/21 05:18:46;;;;;;;25.63;6.40;;;;;;;20.35;100.00;101181.50;2101989;28;20051;-73
2022/11/21 05:20:09;;;;;;;17.52;7.07;;;;;;;20.38;100.00;101179.63;2096244;28;20052;-73
2022/11/21 05:21:31;;;;;;;16.63;7.43;;;;;;;20.41;100.00;101181.38;2091423;28;20485;-73
2022/11/21 05:22:52;;;;;;;19.70;7.30;;;;;;;20.43;100.00;101179.53;2097858;28;20055;-72
2022/11/21 05:24:15;;;;;;;17.27;7.60;;;;;;;20.45;100.00;101178.59;2085962;28;20045;-72
2022/11/21 05:25:36;;;;;;;15.80;6.35;;;;;;;20.46;100.00;101180.38;2099723;28;20047;-72
2022/11/21 05:26:58;;;;;;;19.17;6.85;;;;;;;20.47;100.00;101174.09;2093902;28;20151;-72
2022/11/21 05:28:21;;;;;;;19.40;7.43;;;;;;;20.49;100.00;101172.25;2091155;28;20041;-72
2022/11/21 05:29:44;;;;;;;15.13;7.00;;;;;;;20.49;100.00;101174.94;2099215;28;20463;-72
2022/11/21 05:31:06;;;;;;;18.60;6.90;;;;;;;20.50;100.00;101168.66;2102278;28;20450;-72
2022/11/21 05:32:29;;;;;;;14.27;6.63;;;;;;;20.52;100.00;101174.00;2104946;28;20112;-72
2022/11/21 05:33:51;;;;;;;15.07;7.65;;;;;;;20.51;100.00;101167.75;2101959;28;20082;-72
2022/11/21 05:35:13;;;;;;;34.35;7.88;;;;;;;20.53;100.00;101168.63;2099721;28;20563;-72
2022/11/21 05:36:36;;;;;;;19.60;6.72;;;;;;;20.56;100.00;101167.66;2101888;28;20139;-72
2022/11/21 05:37:57;;;;;;;18.38;7.43;;;;;;;20.58;100.00;101168.53;2096432;28;20136;-72
2022/11/21 05:39:20;;;;;;;18.38;7.63;;;;;;;20.58;100.00;101166.72;2086656;28;20059;-73
2022/11/21 05:40:42;;;;;;;19.27;8.02;;;;;;;20.60;100.00;101175.66;2099488;28;20052;-72
2022/11/21 05:42:05;;;;;;;17.63;7.00;;;;;;;20.63;100.00;101172.00;2101392;28;20048;-72
2022/11/21 05:43:46;;;;;;;18.13;7.47;;;;;;;20.65;100.00;101164.81;2102129;28;20040;-72
2022/11/21 05:45:08;;;;;;;15.13;7.97;;;;;;;20.66;100.00;101167.47;2111081;28;20445;-72
2022/11/21 05:46:31;;;;;;;14.40;7.03;;;;;;;20.69;100.00;101163.81;2093705;28;20388;-72
2022/11/21 05:47:52;;;;;;;17.75;7.57;;;;;;;20.71;100.00;101158.44;2091324;28;20064;-74
2022/11/21 05:49:15;;;;;;;14.48;7.07;;;;;;;20.73;100.00;101162.00;2090626;28;20048;-72
2022/11/21 05:50:36;;;;;;;17.35;6.88;;;;;;;20.78;100.00;101163.66;2099201;28;20058;-72
2022/11/21 05:51:58;;;;;;;17.42;7.55;;;;;;;20.83;100.00;101156.41;2093609;28;20412;-72
2022/11/21 05:53:21;;;;;;;17.58;7.85;;;;;;;20.91;100.00;101156.25;2101653;28;20074;-73
2022/11/21 05:54:43;;;;;;;14.65;7.78;;;;;;;20.97;100.00;101158.81;2095165;28;20052;-72
2022/11/21 05:56:07;;;;;;;19.90;9.05;;;;;;;21.00;100.00;101161.44;2091370;28;20056;-73
2022/11/21 05:57:29;;;;;;;19.95;8.20;;;;;;;21.01;100.00;101155.13;2099713;28;20050;-72
2022/11/21 05:58:55;;;;;;;15.90;5.43;;;;;;;21.05;100.00;101140.72;2093841;28;20050;-72
2022/11/21 06:00:17;;;;;;;21.27;6.95;;;;;;;21.10;100.00;101146.88;2102216;28;20039;-72
2022/11/21 06:03:29;;;;;;;15.60;6.03;;;;;;;21.24;100.00;101155.56;2104382;28;20035;-73
2022/11/21 06:04:50;;;;;;;17.95;5.63;;;;;;;21.33;100.00;101151.81;2094901;28;20048;-72
2022/11/21 06:06:15;;;;;;;11.95;5.75;;;;;;;21.39;100.00;101155.22;2093251;28;20059;-72
2022/11/21 06:07:36;;;;;;;13.27;6.45;;;;;;;21.47;100.00;101149.66;2108470;28;20055;-73
2022/11/21 06:08:59;;;;;;;13.63;5.20;;;;;;;21.51;100.00;101150.50;2109067;28;20124;-73
2022/11/21 06:10:20;;;;;;;13.82;5.10;;;;;;;21.54;100.00;101153.09;2102245;28;20047;-73
2022/11/21 06:11:43;;;;;;;14.40;5.97;;;;;;;21.61;100.00;101168.16;2109906;28;20051;-73
2022/11/21 06:13:20;;;;;;;12.52;4.80;;;;;;;21.75;100.00;101149.91;2105977;28;20052;-73
2022/11/21 06:14:44;;;;;;;11.88;4.65;;;;;;;21.88;100.00;101163.00;2097486;28;20052;-73
2022/11/21 06:16:09;;;;;;;14.68;5.00;;;;;;;22.00;100.00;101159.16;2101334;28;20052;-73
2022/11/21 06:17:31;;;;;;;16.02;5.15;;;;;;;22.01;100.00;101158.25;2098141;28;20443;-73
2022/11/21 06:18:53;;;;;;;10.32;4.18;;;;;;;21.99;100.00;101154.69;2095137;28;20146;-73
2022/11/21 06:20:15;;;;;;;11.63;4.53;;;;;;;22.00;100.00;101153.78;2095260;28;20041;-73
2022/11/21 06:21:37;;;;;;;15.02;4.95;;;;;;;22.05;100.00;101148.31;2091392;28;20068;-73